createdAt,value
2019-05-06T00:01:16.151Z,62.20
2019-05-06T00:03:46.622Z,62.35
2019-05-06T00:06:17.059Z,62.34
2019-05-06T00:08:47.550Z,62.65
2019-05-06T00:11:17.960Z,62.53
2019-05-06T00:13:48.425Z,62.68
2019-05-06T00:16:18.881Z,62.88
2019-05-06T00:18:49.354Z,62.76
2019-05-06T00:21:19.782Z,62.83
2019-05-06T00:23:54.348Z,63.18
2019-05-06T00:26:34.605Z,63.10
2019-05-06T00:29:06.832Z,63.46
2019-05-06T00:31:38.078Z,63.61
2019-05-06T00:34:08.642Z,63.50
2019-05-06T00:36:38.981Z,63.79
2019-05-06T00:39:11.144Z,63.78
2019-05-06T00:41:43.369Z,63.95
2019-05-06T00:44:14.392Z,64.13
2019-05-06T00:46:44.772Z,64.35
2019-05-06T00:49:15.358Z,64.74
2019-05-06T00:51:45.753Z,64.92
2019-05-06T00:54:20.618Z,65.05
2019-05-06T00:56:51.027Z,65.47
2019-05-06T00:59:23.696Z,65.09
2019-05-06T01:01:53.972Z,65.73
2019-05-06T01:04:24.585Z,65.66
2019-05-06T01:06:54.997Z,65.94
2019-05-06T01:09:25.756Z,65.61
2019-05-06T01:11:57.833Z,65.90
2019-05-06T01:14:29.887Z,65.87
2019-05-06T01:17:00.299Z,66.00
2019-05-06T01:19:30.755Z,66.28
2019-05-06T01:22:01.378Z,66.14
2019-05-06T01:24:31.831Z,66.17
2019-05-06T01:27:03.996Z,66.42
2019-05-06T01:29:34.898Z,66.74
2019-05-06T01:32:06.181Z,66.89
2019-05-06T01:34:36.812Z,66.99
2019-05-06T01:37:07.254Z,67.04
2019-05-06T01:39:39.261Z,67.09
2019-05-06T01:42:20.127Z,67.54
2019-05-06T01:44:50.615Z,67.83
2019-05-06T01:47:21.047Z,67.88
2019-05-06T01:49:53.608Z,67.99
2019-05-06T01:52:24.162Z,68.03
2019-05-06T01:54:54.650Z,68.03
2019-05-06T01:57:25.082Z,68.30
2019-05-06T01:59:55.668Z,68.87
2019-05-06T02:02:26.102Z,68.76
2019-05-06T02:04:56.543Z,69.32
2019-05-06T02:07:26.971Z,69.43
2019-05-06T02:09:57.438Z,69.42
2019-05-06T02:12:27.838Z,69.72
2019-05-06T02:14:58.392Z,69.71
2019-05-06T02:17:28.915Z,69.49
2019-05-06T02:19:59.408Z,69.56
2019-05-06T02:22:31.410Z,70.10
2019-05-06T02:25:04.509Z,69.85
2019-05-06T02:27:35.073Z,70.04
2019-05-06T02:30:15.082Z,70.11
2019-05-06T02:32:55.437Z,70.21
2019-05-06T02:35:35.043Z,70.13
2019-05-06T02:38:07.042Z,69.88
2019-05-06T02:40:37.527Z,69.69
2019-05-06T02:43:07.952Z,69.68
2019-05-06T02:45:38.416Z,69.94
2019-05-06T02:48:13.443Z,69.97
2019-05-06T02:50:46.823Z,69.62
2019-05-06T02:53:18.793Z,69.73
2019-05-06T02:55:49.305Z,69.96
2019-05-06T02:58:19.806Z,69.91
2019-05-06T03:00:53.692Z,69.98
2019-05-06T03:03:23.224Z,70.61
2019-05-06T03:05:53.921Z,70.61
2019-05-06T03:08:24.346Z,70.45
2019-05-06T03:10:54.722Z,70.50
2019-05-06T03:13:25.134Z,70.16
2019-05-06T03:15:55.605Z,69.97
2019-05-06T03:18:26.021Z,69.61
2019-05-06T03:20:58.070Z,69.94
2019-05-06T03:23:30.054Z,70.43
2019-05-06T03:26:03.758Z,70.55
2019-05-06T03:28:33.478Z,70.52
2019-05-06T03:31:06.651Z,70.34
2019-05-06T03:33:56.390Z,70.35
2019-05-06T03:36:18.451Z,70.68
2019-05-06T03:38:43.165Z,71.26
2019-05-06T03:41:13.905Z,71.27
2019-05-06T03:43:44.565Z,71.29
2019-05-06T03:46:25.303Z,71.37
2019-05-06T03:48:57.291Z,71.46
2019-05-06T03:51:27.753Z,71.50
2019-05-06T03:54:03.281Z,71.17
2019-05-06T03:56:33.937Z,71.60
2019-05-06T03:59:05.196Z,71.91
2019-05-06T04:01:35.658Z,71.44
2019-05-06T04:04:06.207Z,72.03
2019-05-06T04:06:36.990Z,72.06
2019-05-06T04:09:07.399Z,72.45
2019-05-06T04:11:39.439Z,72.55
2019-05-06T04:14:13.690Z,72.83
2019-05-06T04:17:03.133Z,73.00
2019-05-06T04:19:34.022Z,73.07
2019-05-06T04:22:12.957Z,73.05
2019-05-06T04:24:48.106Z,72.97
2019-05-06T04:27:43.981Z,73.08
2019-05-06T04:30:14.612Z,73.15
2019-05-06T04:32:45.167Z,73.05
2019-05-06T04:35:16.566Z,73.06
2019-05-06T04:37:47.151Z,72.73
2019-05-06T04:40:17.861Z,72.26
2019-05-06T04:42:48.326Z,72.53
2019-05-06T04:45:18.755Z,71.82
2019-05-06T04:47:49.228Z,72.13
2019-05-06T05:52:03.439Z,69.07
2019-05-06T05:54:35.191Z,68.88
2019-05-06T05:57:05.546Z,68.86
2019-05-06T05:59:36.003Z,68.94
2019-05-06T06:02:06.433Z,68.64
2019-05-06T06:04:37.006Z,68.13
2019-05-06T06:07:07.431Z,67.40
2019-05-06T06:09:39.457Z,66.43
2019-05-06T06:12:11.938Z,66.69
2019-05-06T06:14:46.977Z,66.46
2019-05-06T06:17:33.373Z,64.97
2019-05-06T06:20:22.479Z,64.69
2019-05-06T06:22:53.398Z,64.72
2019-05-06T06:25:24.159Z,64.60
2019-05-06T06:27:54.920Z,64.92
2019-05-06T06:30:30.036Z,66.48
2019-05-06T06:33:02.520Z,65.14
2019-05-06T06:35:34.204Z,65.37
2019-05-06T06:38:18.201Z,64.68
2019-05-06T06:40:55.116Z,64.01
2019-05-06T06:43:24.817Z,61.57
2019-05-06T06:45:56.521Z,62.26
2019-05-06T06:48:28.011Z,61.65
2019-05-06T06:51:03.305Z,60.99
2019-05-06T06:53:32.946Z,61.01
2019-05-06T06:56:22.046Z,60.31
2019-05-06T06:59:12.775Z,59.76
2019-05-06T07:01:49.027Z,59.36
2019-05-06T07:04:24.198Z,57.81
2019-05-06T07:06:56.300Z,58.08
2019-05-06T07:09:29.645Z,55.61
2019-05-06T07:12:00.557Z,55.18
2019-05-06T07:14:32.664Z,55.38
2019-05-06T07:17:03.457Z,55.41
2019-05-06T07:19:35.484Z,55.94
2019-05-06T07:22:06.991Z,55.71
2019-05-06T07:24:38.113Z,55.76
2019-05-06T07:27:19.086Z,54.94
2019-05-06T07:29:52.076Z,54.99
2019-05-06T07:32:23.224Z,55.08
2019-05-06T07:34:53.786Z,54.40
2019-05-06T07:37:24.389Z,53.67
2019-05-06T07:39:54.926Z,53.53
2019-05-06T07:42:26.970Z,53.41
2019-05-06T07:45:15.367Z,53.07
2019-05-06T07:47:48.770Z,53.37
2019-05-06T07:50:22.270Z,52.56
2019-05-06T07:53:08.308Z,51.19
2019-05-06T07:55:42.215Z,51.58
2019-05-06T07:58:14.568Z,49.66
2019-05-06T08:00:46.063Z,50.27
2019-05-06T08:03:18.612Z,51.08
2019-05-06T08:05:55.819Z,50.61
2019-05-06T08:08:23.200Z,50.33
2019-05-06T08:10:55.481Z,50.49
2019-05-06T08:13:26.953Z,49.74
2019-05-06T08:15:59.379Z,49.94
2019-05-06T08:18:33.132Z,49.99
2019-05-06T08:21:06.826Z,49.43
2019-05-06T08:23:39.819Z,48.47
2019-05-06T08:26:15.622Z,48.41
2019-05-06T08:28:44.512Z,47.85
2019-05-06T08:31:16.746Z,48.36
2019-05-06T08:33:47.249Z,48.26
2019-05-06T08:36:22.451Z,46.16
2019-05-06T08:39:02.913Z,45.97
2019-05-06T08:41:33.486Z,47.47
2019-05-06T08:44:04.326Z,47.18
2019-05-06T08:46:35.599Z,45.57
2019-05-06T08:49:07.061Z,44.24
2019-05-06T08:51:54.970Z,42.75
2019-05-06T08:54:27.500Z,43.36
2019-05-06T08:56:58.848Z,42.44
2019-05-06T08:59:32.192Z,43.84
2019-05-06T09:02:03.688Z,42.49
2019-05-06T09:04:36.078Z,41.58
2019-05-06T09:07:06.546Z,42.16
2019-05-06T09:09:37.259Z,41.64
2019-05-06T09:12:08.185Z,42.05
2019-05-06T09:14:39.058Z,42.23
2019-05-06T09:17:11.923Z,40.42
2019-05-06T09:19:43.347Z,41.21
2019-05-06T09:22:15.370Z,40.28
2019-05-06T09:24:46.916Z,40.87
2019-05-06T09:27:19.287Z,41.52
2019-05-06T09:29:52.137Z,40.13
2019-05-06T09:32:27.469Z,40.47
2019-05-06T09:34:58.597Z,39.73
2019-05-06T09:37:29.447Z,37.55
2019-05-06T09:40:02.528Z,36.40
2019-05-06T09:42:32.824Z,36.82
2019-05-06T09:45:03.601Z,36.94
2019-05-06T09:47:38.759Z,37.42
2019-05-06T09:50:12.718Z,37.29
2019-05-06T09:52:43.414Z,37.12
2019-05-06T09:55:18.788Z,37.20
2019-05-06T09:57:59.752Z,37.29
2019-05-06T10:00:37.050Z,35.83
2019-05-06T10:03:14.143Z,36.35
2019-05-06T10:05:45.188Z,37.89
2019-05-06T10:08:15.608Z,38.97
2019-05-06T10:10:55.966Z,38.72
2019-05-06T10:13:18.211Z,38.19
2019-05-06T10:15:48.675Z,37.63
2019-05-06T10:18:19.815Z,37.70
2019-05-06T10:20:50.284Z,37.41
2019-05-06T10:23:22.332Z,36.86
2019-05-06T10:25:52.892Z,36.04
2019-05-06T10:28:40.894Z,36.49
2019-05-06T10:31:12.920Z,35.66
2019-05-06T10:34:03.061Z,35.32
2019-05-06T10:36:53.300Z,36.02
2019-05-06T10:39:27.124Z,36.71
2019-05-06T10:42:13.383Z,37.94
2019-05-06T10:45:04.774Z,38.03
2019-05-06T10:47:35.270Z,37.73
2019-05-06T10:50:06.226Z,37.72
2019-05-06T10:52:51.811Z,37.15
2019-05-06T10:55:25.176Z,36.62
2019-05-06T10:57:55.793Z,37.94
2019-05-06T11:00:26.330Z,38.34
2019-05-06T11:03:14.445Z,39.00
2019-05-06T11:05:43.143Z,37.82
2019-05-06T11:08:14.271Z,37.67
2019-05-06T11:10:45.752Z,37.37
2019-05-06T11:13:16.488Z,36.67
2019-05-06T11:15:46.977Z,36.14
2019-05-06T11:18:24.956Z,37.08
2019-05-06T11:20:58.405Z,36.17
2019-05-06T11:23:29.236Z,35.94
2019-05-06T11:25:59.657Z,35.40
2019-05-06T11:28:42.678Z,35.02
2019-05-06T11:31:18.812Z,35.04
2019-05-06T11:33:52.559Z,34.68
2019-05-06T11:36:24.665Z,34.97
2019-05-06T11:38:55.148Z,35.85
2019-05-06T11:41:25.678Z,35.05
2019-05-06T11:43:56.203Z,35.44
2019-05-06T11:46:26.899Z,36.23
2019-05-06T11:48:57.724Z,35.67
2019-05-06T11:51:32.760Z,35.41
2019-05-06T11:54:07.566Z,35.21
2019-05-06T11:56:47.945Z,36.04
2019-05-06T11:59:07.291Z,36.81
2019-05-06T12:01:43.302Z,36.87
2019-05-06T12:04:13.903Z,36.57
2019-05-06T12:06:44.460Z,35.61
2019-05-06T12:09:16.988Z,33.98
2019-05-06T12:11:49.210Z,34.39
2019-05-06T12:14:19.865Z,35.90
2019-05-06T12:16:52.104Z,36.85
2019-05-06T12:19:22.740Z,35.98
2019-05-06T12:21:53.407Z,34.09
2019-05-06T12:24:23.937Z,32.59
2019-05-06T12:26:55.313Z,33.05
2019-05-06T12:29:25.793Z,32.24
2019-05-06T12:32:09.768Z,31.87
2019-05-06T12:34:40.373Z,31.15
2019-05-06T12:37:12.994Z,30.67
2019-05-06T12:39:45.286Z,30.99
2019-05-06T12:42:23.328Z,30.35
2019-05-06T12:44:56.433Z,31.09
2019-05-06T12:47:42.524Z,31.79
2019-05-06T12:50:14.931Z,32.46
2019-05-06T12:52:45.387Z,32.33
2019-05-06T12:55:21.506Z,33.46
2019-05-06T12:57:48.866Z,33.58
2019-05-06T13:00:19.765Z,35.05
2019-05-06T13:02:52.879Z,35.37
2019-05-06T13:05:23.747Z,35.45
2019-05-06T13:07:54.197Z,35.84
2019-05-06T13:10:27.829Z,36.10
2019-05-06T13:13:01.510Z,37.56
2019-05-06T13:15:32.246Z,37.15
2019-05-06T13:18:07.116Z,37.35
2019-05-06T13:20:37.628Z,37.30
2019-05-06T13:23:20.100Z,36.53
2019-05-06T13:25:45.651Z,37.43
2019-05-06T13:28:17.802Z,37.42
2019-05-06T13:30:48.566Z,36.76
2019-05-06T13:33:21.175Z,36.69
2019-05-06T13:35:53.505Z,37.00
2019-05-06T13:38:31.943Z,35.78
2019-05-06T13:41:13.479Z,35.29
2019-05-06T13:44:07.453Z,35.07
2019-05-06T13:46:41.544Z,35.91
2019-05-06T13:49:22.980Z,35.37
2019-05-06T13:52:01.026Z,36.06
2019-05-06T13:54:44.554Z,37.29
2019-05-06T13:57:18.352Z,37.22
2019-05-06T13:59:49.155Z,37.05
2019-05-06T14:02:34.107Z,37.21
2019-05-06T14:05:05.746Z,37.18
2019-05-06T14:07:36.546Z,36.94
2019-05-06T14:10:07.891Z,36.66
2019-05-06T14:12:38.927Z,37.63
2019-05-06T14:15:09.664Z,36.66
2019-05-06T14:17:42.174Z,36.84
2019-05-06T14:20:13.929Z,36.67
2019-05-06T14:22:46.461Z,36.06
2019-05-06T14:25:18.789Z,36.38
2019-05-06T14:27:52.616Z,36.39
2019-05-06T14:30:39.967Z,36.20
2019-05-06T14:33:15.373Z,36.29
2019-05-06T14:35:45.686Z,36.20
2019-05-06T14:38:18.638Z,36.45
2019-05-06T14:41:04.365Z,37.18
2019-05-06T14:43:43.457Z,36.38
2019-05-06T14:46:18.112Z,35.97
2019-05-06T14:48:48.946Z,36.39
2019-05-06T14:51:19.593Z,36.58
2019-05-06T14:53:52.765Z,36.31
2019-05-06T14:56:32.083Z,37.05
2019-05-06T14:59:08.986Z,35.83
2019-05-06T15:01:40.103Z,37.26
2019-05-06T15:04:12.558Z,37.47
2019-05-06T15:06:43.069Z,36.84
2019-05-06T15:09:16.907Z,37.18
2019-05-06T15:11:50.428Z,37.08
2019-05-06T15:14:23.423Z,38.45
2019-05-06T15:16:56.110Z,38.64
2019-05-06T15:19:26.524Z,39.45
2019-05-06T15:21:56.974Z,36.22
2019-05-06T15:24:27.917Z,36.95
2019-05-06T15:27:02.723Z,36.31
2019-05-06T15:29:33.725Z,36.40
2019-05-06T15:32:13.020Z,35.83
2019-05-06T15:34:48.714Z,36.21
2019-05-06T15:37:20.801Z,35.96
2019-05-06T15:39:52.263Z,35.95
2019-05-06T15:42:22.797Z,35.76
2019-05-06T15:44:53.340Z,36.18
2019-05-06T15:47:23.673Z,35.97
2019-05-06T15:49:54.170Z,36.19
2019-05-06T15:52:24.580Z,37.04
2019-05-06T15:54:55.031Z,37.69
2019-05-06T15:57:25.367Z,36.22
2019-05-06T15:59:55.784Z,36.88
2019-05-06T16:02:26.113Z,37.40
2019-05-06T16:04:56.515Z,37.02
2019-05-06T16:07:26.844Z,37.35
2019-05-06T16:09:58.178Z,36.73
2019-05-06T16:12:28.545Z,36.56
2019-05-06T16:14:59.003Z,37.19
2019-05-06T16:17:29.469Z,37.38
2019-05-06T16:19:59.888Z,37.43
2019-05-06T16:22:30.288Z,37.31
2019-05-06T16:25:02.749Z,37.63
2019-05-06T16:27:33.112Z,38.42
2019-05-06T16:30:04.040Z,38.80
2019-05-06T16:32:34.477Z,39.47
2019-05-06T16:35:06.437Z,39.32
2019-05-06T16:37:36.793Z,39.45
2019-05-06T16:40:07.589Z,39.82
2019-05-06T16:42:37.893Z,40.11
2019-05-06T16:45:08.771Z,40.13
2019-05-06T16:47:39.493Z,41.06
2019-05-06T16:50:13.259Z,41.13
2019-05-06T16:52:45.414Z,41.23
2019-05-06T16:55:20.698Z,40.73
2019-05-06T16:58:02.426Z,41.88
2019-05-06T17:00:35.220Z,41.42
2019-05-06T17:03:19.242Z,41.78
2019-05-06T17:06:06.061Z,41.36
2019-05-06T17:08:36.801Z,41.87
2019-05-06T17:11:07.439Z,41.57
2019-05-06T17:13:38.035Z,41.50
2019-05-06T17:16:08.436Z,42.52
2019-05-06T17:18:38.829Z,43.08
2019-05-06T17:21:09.270Z,42.40
2019-05-06T17:23:39.585Z,42.86
2019-05-06T17:26:10.079Z,43.96
2019-05-06T17:28:43.640Z,44.46
2019-05-06T17:31:22.409Z,44.37
2019-05-06T17:34:03.270Z,44.65
2019-05-06T17:36:35.337Z,45.56
2019-05-06T17:39:10.350Z,46.20
2019-05-06T17:41:48.303Z,45.92
2019-05-06T17:44:13.221Z,44.98
2019-05-06T17:46:47.945Z,45.02
2019-05-06T17:49:28.931Z,45.27
2019-05-06T17:52:06.721Z,46.92
2019-05-06T17:54:37.101Z,45.66
2019-05-06T17:57:07.603Z,46.33
2019-05-06T17:59:38.055Z,47.00
2019-05-06T18:02:15.978Z,48.26
2019-05-06T18:04:46.687Z,48.90
2019-05-06T18:07:17.195Z,46.34
2019-05-06T18:09:47.550Z,45.96
2019-05-06T18:12:19.006Z,46.71
2019-05-06T18:14:49.491Z,46.75
2019-05-06T18:17:22.008Z,50.18
2019-05-06T18:19:52.509Z,50.50
2019-05-06T18:22:22.910Z,46.97
2019-05-06T18:24:53.320Z,50.24
2019-05-06T18:27:23.813Z,49.54
2019-05-06T18:29:54.239Z,49.30
2019-05-06T18:32:24.712Z,49.20
2019-05-06T18:34:55.159Z,49.25
2019-05-06T18:37:25.677Z,52.05
2019-05-06T18:39:56.086Z,50.88
2019-05-06T18:42:26.604Z,51.72
2019-05-06T18:44:57.037Z,50.35
2019-05-06T18:47:27.562Z,50.42
2019-05-06T18:49:57.895Z,50.76
2019-05-06T18:52:28.372Z,52.97
2019-05-06T18:54:58.772Z,52.46
2019-05-06T18:57:29.292Z,50.88
2019-05-06T18:59:59.535Z,50.45
2019-05-06T19:02:29.891Z,50.84
2019-05-06T19:05:04.867Z,52.46
2019-05-06T19:07:35.256Z,53.11
2019-05-06T19:10:12.841Z,53.87
2019-05-06T19:12:44.018Z,56.00
2019-05-06T19:15:14.573Z,56.71
2019-05-06T19:17:45.111Z,56.72
2019-05-06T19:20:15.524Z,54.64
2019-05-06T19:22:46.018Z,54.98
2019-05-06T19:25:17.146Z,56.00
2019-05-06T19:27:47.634Z,57.00
2019-05-06T19:30:18.336Z,58.27
2019-05-06T19:32:48.817Z,58.97
2019-05-06T19:35:19.235Z,58.23
2019-05-06T19:37:49.714Z,59.40
2019-05-06T19:40:20.026Z,58.99
2019-05-06T19:42:53.188Z,58.83
2019-05-06T19:45:22.724Z,59.17
2019-05-06T19:47:53.123Z,58.12
2019-05-06T19:50:25.912Z,58.51
2019-05-06T19:52:56.499Z,55.54
2019-05-06T19:55:26.920Z,57.09
2019-05-06T19:57:57.390Z,54.81
2019-05-06T20:00:28.033Z,56.77
2019-05-06T20:02:58.493Z,56.32
2019-05-06T20:05:30.493Z,57.92
2019-05-06T20:08:02.945Z,55.81
2019-05-06T20:10:37.879Z,53.47
2019-05-06T20:13:09.968Z,54.08
2019-05-06T20:15:42.607Z,53.71
2019-05-06T20:18:13.257Z,52.77
2019-05-06T20:20:43.613Z,52.59
2019-05-06T20:23:13.980Z,52.97
2019-05-06T20:25:44.897Z,53.93
2019-05-06T20:28:15.575Z,53.91
2019-05-06T20:30:46.027Z,54.82
2019-05-06T20:33:16.465Z,55.13
2019-05-06T20:35:46.897Z,56.09
2019-05-06T20:38:17.370Z,56.65
2019-05-06T20:40:47.786Z,57.19
2019-05-06T20:43:21.645Z,57.64
2019-05-06T20:45:52.198Z,57.58
2019-05-06T20:48:23.491Z,57.37
2019-05-06T20:50:54.133Z,56.71
2019-05-06T20:53:24.481Z,56.69
2019-05-06T20:55:54.783Z,56.36
2019-05-06T20:58:25.044Z,55.89
2019-05-06T21:00:55.295Z,56.41
2019-05-06T21:03:25.758Z,56.16
2019-05-06T21:05:56.078Z,56.23
2019-05-06T21:08:26.426Z,56.75
2019-05-06T21:10:56.887Z,57.13
2019-05-06T21:13:32.386Z,57.28
2019-05-06T21:16:02.226Z,57.27
2019-05-06T21:18:32.629Z,57.97
2019-05-06T21:21:02.939Z,58.09
2019-05-06T21:23:33.407Z,58.27
2019-05-06T21:26:03.728Z,58.20
2019-05-06T21:28:34.097Z,57.85
2019-05-06T21:31:04.395Z,58.07
2019-05-06T21:33:34.872Z,57.96
2019-05-06T21:36:05.276Z,57.83
2019-05-06T21:38:35.608Z,57.49
2019-05-06T21:41:05.922Z,57.47
2019-05-06T21:43:46.008Z,57.56
2019-05-06T21:46:08.270Z,57.40
2019-05-06T21:48:38.724Z,57.53
2019-05-06T21:51:09.036Z,57.31
2019-05-06T21:53:39.498Z,57.75
2019-05-06T21:56:09.800Z,57.50
2019-05-06T21:58:40.175Z,57.54
2019-05-06T22:01:10.560Z,58.48
2019-05-06T22:03:43.217Z,57.62
2019-05-06T22:06:13.146Z,57.70
2019-05-06T22:08:43.475Z,57.79
2019-05-06T22:11:13.869Z,58.45
2019-05-06T22:13:57.782Z,58.46
2019-05-06T22:16:16.367Z,58.84
2019-05-06T22:18:46.706Z,58.82
2019-05-06T22:21:22.494Z,58.08
2019-05-06T22:23:54.628Z,58.08
2019-05-06T22:26:24.923Z,58.09
2019-05-06T22:28:55.489Z,57.88
2019-05-06T22:31:26.291Z,57.98
2019-05-06T22:33:56.577Z,58.38
2019-05-06T22:36:26.884Z,58.34
2019-05-06T22:38:57.154Z,58.30
2019-05-06T22:41:28.330Z,58.18
2019-05-06T22:44:12.165Z,58.50
2019-05-06T22:46:32.803Z,58.02
2019-05-06T22:49:02.772Z,58.35
2019-05-06T22:51:33.032Z,58.46
2019-05-06T22:54:03.371Z,58.50
2019-05-06T22:56:33.581Z,58.33
2019-05-06T22:59:03.966Z,58.49
2019-05-06T23:01:54.215Z,58.90
2019-05-06T23:04:25.645Z,58.61
2019-05-06T23:06:55.875Z,59.01
2019-05-06T23:09:26.235Z,58.78
2019-05-06T23:11:56.540Z,59.31
2019-05-06T23:14:31.650Z,59.51
2019-05-06T23:16:59.845Z,59.10
2019-05-06T23:19:31.801Z,59.37
2019-05-06T23:22:04.204Z,59.35
2019-05-06T23:24:34.272Z,59.70
2019-05-06T23:27:04.606Z,60.15
2019-05-06T23:29:35.061Z,60.05
2019-05-06T23:32:05.612Z,59.46
2019-05-06T23:34:36.086Z,60.55
2019-05-06T23:37:09.496Z,59.89
2019-05-06T23:40:17.257Z,60.45
2019-05-06T23:43:23.453Z,60.18
2019-05-06T23:46:29.499Z,61.32
2019-05-06T23:49:35.846Z,61.16
2019-05-06T23:52:42.213Z,60.65
2019-05-06T23:55:48.472Z,61.16
2019-05-06T23:58:17.539Z,61.48
